Data for 03/21/2006

Time Sea-Level Adjusted Pressure Absolute Pressure Temperature Relative Humidity Dew Point   
(mb) (inHg) (mb) (inHg) (C) (F) (%) (C) (F)
00:05 1011 29.85 840 24.81 -5.9 21.3 85 -8.1 17.4
00:10 1011 29.85 840 24.81 -6 21.2 85 -8.2 17.2
00:15 1011 29.85 840 24.81 -6 21.2 84 -8.3 17.1
00:20 1011 29.85 840 24.81 -6 21.3 83 -8.4 16.9
00:25 1011 29.85 840 24.81 -6 21.2 83 -8.5 16.7
00:30 1011 29.85 840 24.81 -5.9 21.3 82 -8.5 16.7
00:35 1011 29.85 840 24.81 -5.9 21.4 82 -8.5 16.8
00:40 1011 29.85 840 24.81 -5.9 21.4 82 -8.4 16.8
00:45 1011 29.85 840 24.81 -5.9 21.4 82 -8.4 16.9
00:50 1011 29.85 840 24.81 -5.9 21.4 83 -8.4 16.8
00:55 1011 29.85 840 24.81 -5.9 21.4 83 -8.3 17
01:00 1011 29.85 840 24.81 -5.9 21.4 84 -8.3 17.1
01:05 1011 29.85 840 24.81 -5.9 21.4 84 -8.1 17.4
01:10 1011 29.85 840 24.81 -5.9 21.4 84 -8.1 17.3
01:15 1011 29.85 840 24.81 -5.9 21.4 84 -8.1 17.4
01:20 1011 29.85 840 24.81 -5.9 21.4 85 -8 17.5
01:25 1011 29.85 840 24.81 -5.8 21.5 85 -8 17.6
01:30 1011 29.85 840 24.81 -5.9 21.5 85 -8 17.6
01:35 1011 29.85 840 24.81 -5.8 21.5 85 -7.9 17.8
01:40 1011 29.85 840 24.81 -5.8 21.5 86 -7.9 17.8
01:45 1011 29.85 840 24.81 -5.8 21.5 85 -7.9 17.8
01:50 1011 29.85 840 24.81 -5.8 21.5 86 -7.8 17.9
01:55 1011 29.85 840 24.81 -5.8 21.6 86 -7.8 18
02:00 1011 29.85 840 24.81 -5.8 21.5 86 -7.8 17.9
02:10 1011 29.85 840 24.81 -5.8 21.6 86 -7.8 17.9
02:15 1011 29.85 840 24.81 -5.7 21.7 85 -7.8 18
02:20 1011 29.85 840 24.81 -5.7 21.7 85 -7.8 18
02:25 1011 29.85 840 24.81 -5.8 21.6 86 -7.8 18
02:30 1011 29.85 840 24.81 -5.7 21.7 85 -7.8 18
02:35 1011 29.85 840 24.81 -5.6 21.9 85 -7.7 18.1
02:40 1011 29.85 840 24.81 -5.7 21.8 85 -7.8 18
02:45 1011 29.85 840 24.81 -5.6 21.8 85 -7.9 17.9
02:50 1011 29.85 840 24.81 -5.6 21.9 85 -7.8 18
02:55 1011 29.85 840 24.81 -5.6 21.9 85 -7.8 18
03:00 1011 29.85 840 24.81 -5.7 21.8 85 -7.9 17.9
03:05 1011 29.85 840 24.81 -5.7 21.7 84 -8 17.7
03:10 1011 29.85 840 24.81 -5.7 21.8 84 -7.9 17.8
03:15 1011 29.85 840 24.81 -5.7 21.7 84 -8 17.6
03:20 1011 29.85 840 24.81 -5.8 21.6 84 -8.1 17.5
03:25 1011 29.85 840 24.81 -5.9 21.5 84 -8.1 17.4
03:30 1011 29.85 840 24.81 -5.9 21.4 83 -8.4 16.9
03:35 1011 29.85 840 24.81 -5.9 21.4 83 -8.3 17.1
03:40 1011 29.85 840 24.81 -5.9 21.4 83 -8.4 16.9
03:45 1010 29.83 840 24.81 -5.9 21.3 83 -8.4 16.9
03:50 1011 29.85 840 24.81 -5.9 21.3 82 -8.5 16.7
03:55 1011 29.85 840 24.81 -6 21.1 82 -8.6 16.6
04:00 1011 29.85 840 24.81 -6.1 21 83 -8.6 16.5
04:05 1011 29.85 840 24.81 -6.2 20.8 85 -8.4 16.9
04:10 1011 29.85 840 24.81 -6.2 20.9 86 -8.2 17.2
04:15 1011 29.85 840 24.81 -6.1 21 86 -8.1 17.4
04:20 1011 29.85 840 24.81 -6 21.2 86 -8 17.6
04:25 1011 29.85 840 24.81 -6 21.1 86 -8 17.6
04:30 1011 29.85 840 24.81 -6.1 21.1 86 -8.1 17.5
04:35 1011 29.85 840 24.81 -6 21.2 86 -8.1 17.5
04:40 1011 29.85 840 24.81 -6 21.2 86 -8 17.6
04:45 1011 29.85 840 24.81 -6.1 21.1 85 -8.2 17.3
04:50 1011 29.85 840 24.81 -6.1 20.9 85 -8.3 17
04:55 1011 29.85 840 24.81 -6.2 20.8 85 -8.4 16.9
05:00 1011 29.85 840 24.81 -6.3 20.7 85 -8.4 17
05:05 1011 29.85 840 24.81 -6.2 20.8 86 -8.2 17.2
05:10 1011 29.85 840 24.81 -6.2 20.8 86 -8.2 17.2
05:15 1011 29.85 840 24.81 -6.2 20.9 85 -8.3 17.1
05:20 1011 29.85 840 24.81 -6.2 20.9 85 -8.3 17.1
05:25 1011 29.85 840 24.81 -6.1 21 85 -8.3 17.1
05:30 1011 29.85 840 24.81 -6.1 21 85 -8.2 17.2
05:35 1011 29.85 840 24.81 -6.1 21 85 -8.2 17.2
05:40 1011 29.85 840 24.81 -6.1 21 85 -8.2 17.2
05:45 1011 29.85 840 24.81 -6.2 20.9 85 -8.3 17
05:50 1011 29.85 840 24.81 -6.2 20.8 85 -8.3 17
05:55 1011 29.85 840 24.81 -6.2 20.9 85 -8.4 16.9
06:00 1011 29.85 840 24.81 -6.2 20.8 84 -8.5 16.8
06:05 1011 29.85 840 24.81 -6.3 20.7 84 -8.5 16.7
06:10 1011 29.85 840 24.81 -6.3 20.6 85 -8.5 16.7
06:15 1011 29.85 840 24.81 -6.3 20.6 85 -8.5 16.7
06:20 1011 29.85 840 24.81 -6.3 20.6 85 -8.5 16.7
06:25 1011 29.85 840 24.81 -6.3 20.7 84 -8.5 16.7
06:30 1011 29.85 840 24.81 -6.3 20.6 84 -8.5 16.6
06:35 1011 29.85 840 24.81 -6.3 20.7 84 -8.5 16.7
06:40 1011 29.85 840 24.81 -6.2 20.8 85 -8.3 17.1
06:45 1011 29.85 840 24.81 -6.2 20.9 84 -8.4 16.9
06:50 1011 29.85 840 24.81 -6.2 20.9 84 -8.5 16.8
06:55 1011 29.85 840 24.81 -6.3 20.7 84 -8.5 16.6
07:00 1011 29.85 840 24.81 -6.2 20.9 83 -8.6 16.6
07:05 1011 29.85 840 24.81 -6.1 21 83 -8.5 16.7
07:10 1011 29.85 840 24.81 -5.9 21.4 83 -8.4 16.9
07:15 1011 29.85 840 24.81 -5.7 21.7 83 -8.1 17.4
07:20 1011 29.85 840 24.81 -5.6 22 83 -8 17.5
07:25 1011 29.85 840 24.81 -5.3 22.4 82 -7.9 17.7
07:30 1011 29.85 840 24.81 -5.2 22.7 81 -7.9 17.8
07:35 1011 29.85 840 24.81 -5.2 22.7 81 -7.9 17.7
07:40 1011 29.85 840 24.81 -5.2 22.6 81 -8 17.7
07:45 1011 29.85 840 24.81 -5.2 22.6 81 -8 17.6
07:50 1011 29.85 840 24.81 -5.1 22.8 81 -7.9 17.7
07:55 1011 29.85 840 24.81 -5 23.1 80 -7.8 17.9
08:00 1011 29.85 840 24.81 -4.9 23.2 81 -7.7 18.2
08:05 1011 29.85 840 24.81 -4.7 23.5 80 -7.6 18.3
08:10 1011 29.85 840 24.81 -4.7 23.6 80 -7.5 18.4
08:15 1011 29.85 840 24.81 -4.5 23.9 79 -7.6 18.3
08:20 1011 29.85 841 24.83 -4.3 24.2 80 -7.3 18.8
08:25 1011 29.85 841 24.83 -4.4 24 80 -7.4 18.7
08:30 1011 29.85 840 24.81 -4.3 24.3 79 -7.4 18.6
08:35 1011 29.85 841 24.83 -4 24.7 78 -7.3 18.8
08:40 1011 29.85 841 24.83 -4.1 24.7 78 -7.4 18.7
08:45 1012 29.88 841 24.83 -4 24.8 78 -7.3 18.9
08:50 1012 29.88 841 24.83 -3.9 25 77 -7.3 18.8
08:55 1012 29.88 841 24.83 -3.8 25.2 77 -7.3 18.9
09:00 1012 29.88 841 24.83 -3.3 26 74 -7.3 18.9
09:05 1012 29.88 841 24.83 -3.4 25.9 76 -7 19.3
09:10 1012 29.88 841 24.83 -3.4 25.8 75 -7.3 18.9
09:15 1012 29.88 841 24.83 -3.1 26.4 74 -7.1 19.2
09:20 1012 29.88 841 24.83 -2.9 26.8 73 -7.1 19.2
09:25 1012 29.88 841 24.83 -3 26.6 74 -7 19.4
09:30 1012 29.88 841 24.83 -3 26.7 74 -7 19.5
09:35 1012 29.88 841 24.83 -3 26.6 74 -7 19.5
09:40 1012 29.88 841 24.83 -3.1 26.4 75 -7 19.5
09:45 1012 29.88 841 24.83 -3.1 26.4 75 -6.9 19.5
09:50 1012 29.88 841 24.83 -3.1 26.5 74 -7.1 19.2
09:55 1012 29.88 841 24.83 -2.7 27.1 73 -6.9 19.6
10:00 1012 29.88 841 24.83 -2.3 27.9 71 -6.8 19.7
10:05 1012 29.88 841 24.83 -2.2 28.1 72 -6.6 20
10:10 1012 29.88 841 24.83 -2.3 27.8 72 -6.6 20
10:15 1012 29.88 841 24.83 -2.7 27.2 73 -6.9 19.5
10:20 1012 29.88 841 24.83 -2.3 27.8 72 -6.7 20
10:25 1012 29.88 841 24.83 -2.1 28.2 72 -6.6 20.2
10:30 1012 29.88 841 24.83 -1.9 28.6 71 -6.5 20.3
10:35 1012 29.88 841 24.83 -1.9 28.5 71 -6.5 20.3
10:40 1012 29.88 841 24.83 -2.1 28.3 71 -6.7 20
10:45 1012 29.88 841 24.83 -1.9 28.6 70 -6.6 20
10:50 1012 29.88 841 24.83 -1.9 28.5 70 -6.7 20
10:55 1012 29.88 841 24.83 -1.7 28.9 69 -6.6 20.2
11:00 1012 29.88 841 24.83 -1.8 28.7 70 -6.6 20.2
11:05 1012 29.88 841 24.83 -1.6 29.1 69 -6.5 20.2
11:10 1012 29.88 841 24.83 -1.5 29.3 70 -6.3 20.7
11:15 1012 29.88 841 24.83 -1.4 29.5 69 -6.3 20.7
11:20 1012 29.88 841 24.83 -1.2 29.9 68 -6.4 20.5
11:25 1012 29.88 841 24.83 -0.9 30.4 67 -6.2 20.8
11:30 1012 29.88 841 24.83 -0.5 31.2 65 -6.2 20.9
11:35 1012 29.88 841 24.83 -0 32 65 -5.8 21.6
11:40 1012 29.88 841 24.83 -0.2 31.7 65 -6 21.2
11:45 1012 29.88 841 24.83 -0.2 31.6 66 -5.8 21.5
11:50 1012 29.88 841 24.83 -0 32 65 -5.9 21.4
11:55 1012 29.88 841 24.83 0.4 32.7 64 -5.7 21.7
12:00 1012 29.88 841 24.83 0.4 32.8 64 -5.7 21.8
12:05 1012 29.88 841 24.83 -0.1 31.8 66 -5.7 21.7
12:10 1012 29.88 841 24.83 0 32 65 -5.8 21.6
12:15 1011 29.85 841 24.83 0.3 32.5 63 -5.9 21.4
12:20 1011 29.85 841 24.83 0.2 32.4 66 -5.3 22.4
12:25 1011 29.85 841 24.83 0.4 32.6 64 -5.7 21.7
12:30 1011 29.85 841 24.83 0.6 33.1 64 -5.5 22.2
12:35 1011 29.85 841 24.83 0.4 32.7 65 -5.5 22.1
12:40 1011 29.85 841 24.83 0.6 33.1 63 -5.6 22
12:45 1011 29.85 840 24.81 0.4 32.8 65 -5.4 22.3
12:50 1011 29.85 841 24.83 0.5 32.9 64 -5.5 22.2
12:55 1011 29.85 841 24.83 0.5 33 64 -5.4 22.3
13:00 1011 29.85 841 24.83 0.6 33 63 -5.6 22
13:05 1011 29.85 840 24.81 0.6 33.1 65 -5.2 22.6
13:10 1011 29.85 840 24.81 -0.1 31.8 67 -5.4 22.2
13:15 1011 29.85 840 24.81 -0.2 31.6 69 -5.3 22.5
13:20 1011 29.85 840 24.81 0 32.1 67 -5.3 22.4
13:25 1011 29.85 840 24.81 0.9 33.7 64 -5.2 22.7
13:30 1011 29.85 840 24.81 1.3 34.3 62 -5.3 22.5
13:35 1011 29.85 840 24.81 1.2 34.1 64 -4.9 23.2
13:40 1011 29.85 840 24.81 1 33.8 64 -5.1 22.8
13:45 1011 29.85 840 24.81 0.5 32.9 66 -5.1 22.7
13:50 1011 29.85 840 24.81 0.2 32.4 67 -5.2 22.6
13:55 1011 29.85 840 24.81 0.2 32.3 67 -5.3 22.4
14:00 1011 29.85 840 24.81 0.6 33 67 -4.9 23.1
14:05 1011 29.85 840 24.81 1.1 34 63 -5.1 22.8
14:10 1011 29.85 840 24.81 0.4 32.7 68 -4.8 23.3
14:15 1011 29.85 840 24.81 -0.2 31.7 69 -5.3 22.5
14:20 1011 29.85 841 24.83 -0.3 31.5 68 -5.4 22.2
14:25 1011 29.85 841 24.83 -0.6 30.9 69 -5.6 21.9
14:30 1011 29.85 841 24.83 -0.9 30.5 70 -5.7 21.8
14:35 1011 29.85 841 24.83 -0.7 30.8 68 -5.8 21.6
14:40 1011 29.85 841 24.83 -0.2 31.6 67 -5.7 21.8
14:45 1011 29.85 841 24.83 -0.3 31.4 68 -5.6 22
14:50 1011 29.85 841 24.83 -0.6 30.9 69 -5.5 22
14:55 1012 29.88 841 24.83 -1 30.3 70 -5.7 21.7
15:00 1012 29.88 841 24.83 -1.4 29.6 72 -5.9 21.5
15:05 1012 29.88 841 24.83 -1.4 29.5 72 -5.8 21.6
15:10 1012 29.88 841 24.83 -1.4 29.5 72 -5.8 21.5
15:15 1012 29.88 841 24.83 -1.6 29.2 74 -5.7 21.7
15:20 1012 29.88 841 24.83 -1.8 28.8 74 -5.9 21.4
15:25 1012 29.88 841 24.83 -1.8 28.8 74 -5.8 21.5
15:30 1012 29.88 841 24.83 -1.9 28.6 74 -6 21.2
15:35 1012 29.88 841 24.83 -1.9 28.5 74 -5.9 21.3
15:40 1012 29.88 841 24.83 -1.7 28.9 74 -5.8 21.6
15:45 1012 29.88 841 24.83 -1.8 28.8 74 -5.8 21.5
15:50 1012 29.88 841 24.83 -1.6 29.1 76 -5.3 22.4
15:55 1012 29.88 841 24.83 -1.5 29.3 78 -4.8 23.4
16:00 1012 29.88 841 24.83 -1.5 29.4 77 -4.9 23.1
16:05 1012 29.88 841 24.83 -1.6 29.2 78 -4.9 23.2
16:10 1012 29.88 841 24.83 -1.8 28.8 80 -4.8 23.4
16:15 1012 29.88 841 24.83 -1.9 28.6 80 -4.9 23.2
16:20 1012 29.88 841 24.83 -1.8 28.7 78 -5.1 22.8
16:25 1012 29.88 841 24.83 -2 28.5 81 -4.9 23.2
16:30 1012 29.88 841 24.83 -2 28.3 81 -4.9 23.2
16:35 1012 29.88 841 24.83 -2 28.4 80 -4.9 23.1
16:40 1012 29.88 841 24.83 -2.2 28.1 83 -4.7 23.5
16:45 1012 29.88 841 24.83 -2.3 27.9 80 -5.3 22.5
16:50 1012 29.88 841 24.83 -2.1 28.2 79 -5.3 22.5
16:55 1012 29.88 841 24.83 -1.9 28.5 78 -5.3 22.4
17:00 1012 29.88 841 24.83 -1.9 28.6 76 -5.5 22.1
17:05 1012 29.88 841 24.83 -1.9 28.6 76 -5.7 21.8
17:10 1012 29.88 841 24.83 -1.9 28.6 75 -5.7 21.7
17:15 1012 29.88 841 24.83 -1.9 28.6 76 -5.7 21.8
17:20 1012 29.88 841 24.83 -1.8 28.7 75 -5.7 21.7
17:25 1012 29.88 841 24.83 -1.8 28.8 74 -5.8 21.6
17:30 1012 29.88 841 24.83 -1.8 28.8 74 -5.9 21.5
17:35 1012 29.88 841 24.83 -1.8 28.8 74 -5.8 21.6
17:40 1012 29.88 841 24.83 -1.8 28.8 74 -5.8 21.5
17:45 1012 29.88 841 24.83 -1.8 28.7 75 -5.7 21.7
17:50 1012 29.88 841 24.83 -2 28.3 75 -5.9 21.4
17:55 1012 29.88 841 24.83 -2.2 28 76 -6 21.2
18:00 1012 29.88 841 24.83 -2.4 27.7 77 -5.8 21.5
18:05 1012 29.88 841 24.83 -2.5 27.5 78 -5.9 21.4
18:10 1012 29.88 841 24.83 -2.5 27.5 78 -5.9 21.4
18:15 1012 29.88 842 24.86 -2.6 27.3 78 -5.9 21.4
18:20 1012 29.88 842 24.86 -2.7 27.1 79 -5.9 21.4
18:25 1013 29.91 842 24.86 -2.8 27 80 -5.8 21.6
18:30 1013 29.91 842 24.86 -2.9 26.9 80 -5.8 21.6
18:35 1013 29.91 842 24.86 -3 26.7 81 -5.8 21.5
18:40 1013 29.91 842 24.86 -3.1 26.5 80 -6 21.2
18:45 1013 29.91 842 24.86 -3.1 26.4 80 -6.1 21.1
18:50 1013 29.91 842 24.86 -3.1 26.4 81 -6 21.3
18:55 1013 29.91 842 24.86 -3.2 26.2 81 -6 21.2
19:00 1013 29.91 842 24.86 -3.2 26.2 82 -5.9 21.4
19:05 1013 29.91 842 24.86 -3.3 26.1 82 -5.9 21.4
19:10 1013 29.91 842 24.86 -3.2 26.2 83 -5.8 21.6
19:15 1013 29.91 843 24.89 -3.3 26.1 83 -5.8 21.6
19:20 1013 29.91 843 24.89 -3.3 26.1 83 -5.8 21.6
19:25 1013 29.91 843 24.89 -3.3 26.1 83 -5.8 21.6
19:30 1013 29.91 843 24.89 -3.2 26.2 83 -5.7 21.7
19:35 1013 29.91 843 24.89 -3.2 26.2 83 -5.7 21.8
19:40 1014 29.94 843 24.89 -3.2 26.2 83 -5.6 21.9
19:45 1014 29.94 843 24.89 -3.2 26.2 84 -5.6 21.9
19:50 1014 29.94 843 24.89 -3.3 26.1 84 -5.7 21.8
19:55 1014 29.94 843 24.89 -3.3 26.1 83 -5.7 21.7
20:00 1014 29.94 843 24.89 -3.2 26.2 84 -5.6 21.9
20:05 1014 29.94 843 24.89 -3.3 26.1 83 -5.7 21.8
20:10 1014 29.94 843 24.89 -3.3 26 84 -5.7 21.7
20:15 1014 29.94 843 24.89 -3.3 26.1 84 -5.6 21.9
20:20 1014 29.94 843 24.89 -3.2 26.2 83 -5.7 21.8
20:25 1014 29.94 843 24.89 -3.2 26.2 83 -5.6 21.9
20:30 1014 29.94 843 24.89 -3.1 26.3 83 -5.6 21.9
20:35 1014 29.94 843 24.89 -3.1 26.4 83 -5.6 22
20:40 1014 29.94 843 24.89 -3.1 26.5 84 -5.5 22.1
20:45 1014 29.94 843 24.89 -3.1 26.4 85 -5.3 22.4
20:50 1014 29.94 843 24.89 -3.2 26.2 86 -5.3 22.5
20:55 1014 29.94 843 24.89 -3.4 26 88 -5.1 22.9
21:00 1014 29.94 844 24.92 -3.5 25.7 89 -5.1 22.8
21:05 1014 29.94 844 24.92 -3.6 25.6 88 -5.2 22.6
21:10 1015 29.97 844 24.92 -3.5 25.7 87 -5.4 22.3
21:15 1015 29.97 844 24.92 -3.5 25.7 86 -5.5 22.1
21:20 1015 29.97 844 24.92 -3.5 25.7 86 -5.5 22.1
21:25 1015 29.97 844 24.92 -3.5 25.6 85 -5.7 21.8
21:30 1015 29.97 844 24.92 -3.4 25.8 84 -5.7 21.7
21:35 1015 29.97 844 24.92 -3.5 25.8 84 -5.7 21.7
21:40 1015 29.97 844 24.92 -3.4 25.8 85 -5.7 21.8
21:45 1015 29.97 844 24.92 -3.4 25.8 84 -5.7 21.7
21:50 1015 29.97 844 24.92 -3.4 25.8 84 -5.7 21.7
21:55 1015 29.97 844 24.92 -3.4 25.9 83 -5.8 21.5
22:00 1015 29.97 844 24.92 -3.3 26 82 -5.9 21.3
22:05 1015 29.97 844 24.92 -3.3 26.1 82 -6 21.3
22:10 1015 29.97 844 24.92 -3.2 26.2 81 -6 21.2
22:15 1015 29.97 844 24.92 -3.2 26.2 81 -6 21.2
22:20 1015 29.97 845 24.95 -3.2 26.2 81 -6 21.2
22:25 1015 29.97 845 24.95 -3.2 26.2 81 -6 21.2
22:30 1015 29.97 845 24.95 -3.2 26.2 81 -6 21.2
22:35 1016 30 845 24.95 -3.3 26.1 81 -6 21.2
22:40 1016 30 845 24.95 -3.2 26.3 82 -5.9 21.4
22:45 1016 30 845 24.95 -3.3 26.1 82 -5.9 21.3
22:50 1016 30 845 24.95 -3.3 26.1 82 -5.9 21.3
22:55 1016 30 845 24.95 -3.3 26 82 -5.9 21.3
23:00 1016 30 845 24.95 -3.3 26.1 83 -5.8 21.5
23:05 1016 30 845 24.95 -3.4 26 83 -5.9 21.4
23:10 1016 30 845 24.95 -3.3 26 83 -5.9 21.4
23:15 1016 30 845 24.95 -3.2 26.2 82 -5.9 21.4
23:20 1016 30 845 24.95 -3.2 26.2 82 -5.9 21.5
23:25 1016 30 845 24.95 -3.2 26.2 82 -5.9 21.4
23:30 1016 30 845 24.95 -3.2 26.3 81 -5.9 21.3
23:35 1016 30 845 24.95 -3.2 26.2 82 -5.9 21.3
23:40 1016 30 845 24.95 -3.2 26.2 82 -5.9 21.3
23:45 1016 30 845 24.95 -3.3 26.1 82 -6 21.2
23:50 1016 30 845 24.95 -3.3 26 82 -6 21.1
23:55 1016 30 845 24.95 -3.4 26 82 -6 21.2
24:00 1016 30 846 24.98 -3.4 25.9 82 -6 21.2